Time;durP1;ratioP1;P1;durP2;ratioP2;P2;SDS_P1;SDS_P2;PMS_P1;PMS_P2;Temp;Humidity;BMP_temperature;BMP_pressure;BME280_temperature;BME280_humidity;BME280_pressure;Samples;Min_cycle;Max_cycle;Signal;HPM_P1;HPM_P2
2023/07/21 00:01:46;;;;;;;;;;;;;;;14.31;57.78;95987.91;6277009;28;19935;-71
2023/07/21 00:04:50;;;;;;;;;;;;;;;14.19;57.92;95981.16;6294658;28;19929;-71
2023/07/21 00:07:54;;;;;;;;;;;;;;;14.04;58.26;95985.19;6294788;28;19924;-71
2023/07/21 00:10:58;;;;;;;;;;;;;;;14.06;58.36;95991.19;6276662;28;19925;-71
2023/07/21 00:14:02;;;;;;;;;;;;;;;13.97;58.58;95986.75;6276481;28;19924;-71
2023/07/21 00:17:05;;;;;;;;;;;;;;;13.96;58.56;95998.34;6294234;28;19930;-71
2023/07/21 00:20:12;;;;;;;;;;;;;;;14.05;58.76;96002.75;6259854;28;20398;-72
2023/07/21 00:23:16;;;;;;;;;;;;;;;14.07;58.71;96008.75;6294203;28;20019;-70
2023/07/21 00:26:20;;;;;;;;;;;;;;;14.19;58.78;96012.91;6294381;28;19929;-71
2023/07/21 00:29:23;;;;;;;;;;;;;;;14.32;58.68;96008.13;6294363;28;19924;-71
2023/07/21 00:32:27;;;;;;;;;;;;;;;14.18;58.55;96008.56;6299191;28;19930;-71
2023/07/21 00:35:31;;;;;;;;;;;;;;;14.22;58.65;96012.59;6298892;28;20419;-71
2023/07/21 00:38:33;;;;;;;;;;;;;;;14.35;58.36;96010.50;6280885;28;19932;-71
2023/07/21 00:41:37;;;;;;;;;;;;;;;14.36;58.11;96008.69;6298841;28;19925;-71
2023/07/21 00:44:40;;;;;;;;;;;;;;;14.37;58.06;96011.16;6298607;28;19925;-71
2023/07/21 00:47:44;;;;;;;;;;;;;;;14.35;58.43;96007.84;6298779;28;19935;-72
2023/07/21 00:50:50;;;;;;;;;;;;;;;14.35;57.92;96013.13;6298478;28;19963;-71
2023/07/21 00:53:54;;;;;;;;;;;;;;;14.51;58.01;96011.69;6298317;28;20317;-72
2023/07/21 00:56:57;;;;;;;;;;;;;;;14.46;57.66;96012.09;6298473;28;20018;-71
2023/07/21 01:00:00;;;;;;;;;;;;;;;14.51;57.73;96017.81;6298244;28;19935;-72
2023/07/21 01:03:09;;;;;;;;;;;;;;;14.52;57.69;96019.53;6264058;28;20398;-71
2023/07/21 01:06:13;;;;;;;;;;;;;;;14.60;57.94;96032.84;6298159;28;20015;-71
2023/07/21 01:09:19;;;;;;;;;;;;;;;14.59;58.09;96033.00;6298251;28;20017;-72
2023/07/21 01:12:22;;;;;;;;;;;;;;;14.59;57.88;96035.66;6298085;28;19924;-71
2023/07/21 01:15:26;;;;;;;;;;;;;;;14.67;58.14;96043.72;6297912;28;19931;-72
2023/07/21 01:18:29;;;;;;;;;;;;;;;14.68;58.12;96037.44;6297570;28;19924;-71
2023/07/21 01:21:37;;;;;;;;;;;;;;;14.85;57.94;96045.59;6280566;28;20375;-71
2023/07/21 01:24:46;;;;;;;;;;;;;;;15.09;57.55;96059.16;6298496;28;20026;-72
2023/07/21 01:27:52;;;;;;;;;;;;;;;14.98;57.42;96054.03;6297792;28;19924;-72
2023/07/21 01:30:56;;;;;;;;;;;;;;;14.86;57.68;96065.78;6297441;28;20022;-71
2023/07/21 01:33:59;;;;;;;;;;;;;;;14.80;57.86;96064.56;6297883;28;20027;-70
2023/07/21 01:37:02;;;;;;;;;;;;;;;14.88;57.94;96072.59;6279346;28;19999;-71
2023/07/21 01:40:13;;;;;;;;;;;;;;;15.02;57.51;96079.25;6297192;28;19924;-71
2023/07/21 01:43:17;;;;;;;;;;;;;;;15.13;57.52;96079.06;6297310;28;19932;-71
2023/07/21 01:46:20;;;;;;;;;;;;;;;15.20;57.36;96081.94;6297261;28;19924;-72
2023/07/21 01:49:24;;;;;;;;;;;;;;;15.29;56.94;96090.84;6297175;28;19924;-71
2023/07/21 01:52:29;;;;;;;;;;;;;;;15.39;56.80;96081.00;6297145;28;19924;-72
2023/07/21 01:55:37;;;;;;;;;;;;;;;15.59;56.54;96087.84;6279495;28;20015;-72
2023/07/21 01:58:41;;;;;;;;;;;;;;;15.89;56.05;96097.31;6297048;28;19924;-71
2023/07/21 02:01:46;;;;;;;;;;;;;;;16.14;55.45;96087.75;6296836;28;19924;-73
2023/07/21 02:04:51;;;;;;;;;;;;;;;16.46;55.05;96099.63;6296710;28;20398;-71
2023/07/21 02:07:54;;;;;;;;;;;;;;;16.82;54.17;96108.38;6278981;28;19925;-72
2023/07/21 02:10:57;;;;;;;;;;;;;;;17.02;53.57;96097.50;6279128;28;20398;-71
2023/07/21 02:14:04;;;;;;;;;;;;;;;16.86;53.71;96103.56;6296790;28;20528;-71
2023/07/21 02:17:08;;;;;;;;;;;;;;;16.92;53.61;96107.41;6296484;28;19924;-72
2023/07/21 02:20:41;;;;;;;;;;;;;;;16.98;53.61;96118.22;6280747;28;20302;-70
2023/07/21 02:23:44;;;;;;;;;;;;;;;17.10;53.55;96102.00;6296246;28;19924;-72
2023/07/21 02:26:47;;;;;;;;;;;;;;;17.44;52.74;96112.66;6278271;28;19959;-71
2023/07/21 02:29:56;;;;;;;;;;;;;;;17.80;51.53;96115.94;6278903;28;20386;-71
2023/07/21 02:33:02;;;;;;;;;;;;;;;18.05;51.28;96118.66;6296034;28;20019;-71
2023/07/21 02:36:08;;;;;;;;;;;;;;;18.32;50.36;96117.53;6278709;28;19920;-71
2023/07/21 02:39:11;;;;;;;;;;;;;;;18.35;50.72;96117.19;6278040;28;20070;-72
2023/07/21 02:42:14;;;;;;;;;;;;;;;18.43;50.67;96119.00;6296084;28;20018;-72
2023/07/21 02:45:18;;;;;;;;;;;;;;;18.39;50.76;96119.34;6295889;28;19924;-72
2023/07/21 02:48:22;;;;;;;;;;;;;;;18.42;50.82;96122.66;6295659;28;19932;-71
2023/07/21 02:51:27;;;;;;;;;;;;;;;18.57;50.67;96121.00;6295814;28;20018;-72
2023/07/21 02:54:32;;;;;;;;;;;;;;;18.68;50.66;96120.66;6294609;28;19995;-71
2023/07/21 02:57:36;;;;;;;;;;;;;;;18.71;50.58;96123.00;6295312;28;20018;-71
2023/07/21 03:00:39;;;;;;;;;;;;;;;18.80;50.21;96127.34;6275687;28;19925;-72
2023/07/21 03:03:41;;;;;;;;;;;;;;;18.72;50.17;96119.31;6295175;28;19925;-72
2023/07/21 03:06:46;;;;;;;;;;;;;;;18.51;50.79;96119.00;6295328;28;19924;-71
2023/07/21 03:09:49;;;;;;;;;;;;;;;18.30;51.06;96120.34;6295095;28;19925;-72
2023/07/21 03:12:52;;;;;;;;;;;;;;;18.18;51.54;96121.66;6295172;28;20022;-71
2023/07/21 03:15:56;;;;;;;;;;;;;;;18.12;51.59;96125.00;6277540;28;19924;-71
2023/07/21 03:19:02;;;;;;;;;;;;;;;18.26;50.87;96137.66;6295093;28;20010;-73
2023/07/21 03:22:07;;;;;;;;;;;;;;;18.56;49.63;96140.66;6277156;28;19924;-71
2023/07/21 03:25:12;;;;;;;;;;;;;;;18.50;49.72;96149.31;6294889;28;20018;-71
2023/07/21 03:28:14;;;;;;;;;;;;;;;18.65;49.42;96152.13;6260874;28;19931;-72
2023/07/21 03:31:18;;;;;;;;;;;;;;;18.75;49.08;96156.34;6295038;28;20011;-72
2023/07/21 03:34:22;;;;;;;;;;;;;;;18.78;48.42;96166.66;6294678;28;19931;-71
2023/07/21 03:37:26;;;;;;;;;;;;;;;18.74;48.72;96154.69;6276430;28;19924;-72
2023/07/21 03:40:31;;;;;;;;;;;;;;;18.69;48.85;96172.13;6277035;28;20102;-72
2023/07/21 03:43:36;;;;;;;;;;;;;;;18.81;48.42;96171.66;6277279;28;19971;-72
2023/07/21 03:46:40;;;;;;;;;;;;;;;18.90;48.30;96168.97;6260552;28;20461;-71
2023/07/21 03:49:44;;;;;;;;;;;;;;;18.98;47.66;96166.31;6277194;28;20398;-72
2023/07/21 03:52:46;;;;;;;;;;;;;;;18.99;48.04;96167.94;6294747;28;20023;-72
2023/07/21 03:55:50;;;;;;;;;;;;;;;19.10;47.56;96159.59;6294653;28;20460;-72
2023/07/21 03:58:53;;;;;;;;;;;;;;;19.11;47.35;96166.63;6294640;28;19925;-72
2023/07/21 04:01:57;;;;;;;;;;;;;;;19.17;47.42;96171.28;6276940;28;19930;-71
2023/07/21 04:05:01;;;;;;;;;;;;;;;19.23;47.29;96170.59;6297125;28;19920;-72
2023/07/21 04:08:04;;;;;;;;;;;;;;;19.33;47.17;96172.22;6299501;28;20023;-71
2023/07/21 04:11:08;;;;;;;;;;;;;;;19.35;47.20;96167.56;6281757;28;19920;-71
2023/07/21 04:14:11;;;;;;;;;;;;;;;19.43;47.03;96172.88;6299409;28;19924;-72
2023/07/21 04:17:16;;;;;;;;;;;;;;;19.50;47.29;96166.69;6281300;28;19931;-72
2023/07/21 04:20:22;;;;;;;;;;;;;;;19.52;47.16;96159.31;6299124;28;19928;-72
2023/07/21 04:23:25;;;;;;;;;;;;;;;19.58;47.35;96172.97;6299182;28;19925;-71
2023/07/21 04:26:28;;;;;;;;;;;;;;;19.64;46.93;96167.78;6298623;28;19925;-71
2023/07/21 04:29:33;;;;;;;;;;;;;;;19.77;46.52;96166.44;6298958;28;19924;-71
2023/07/21 04:32:38;;;;;;;;;;;;;;;19.87;46.60;96173.22;6298885;28;19924;-71
2023/07/21 04:35:48;;;;;;;;;;;;;;;20.00;46.17;96169.97;6298746;28;19935;-72
2023/07/21 04:38:51;;;;;;;;;;;;;;;20.09;45.81;96166.25;6298387;28;19924;-73
2023/07/21 04:41:55;;;;;;;;;;;;;;;20.33;45.50;96165.28;6280993;28;20398;-72
2023/07/21 04:44:57;;;;;;;;;;;;;;;21.01;44.63;96168.94;6280717;28;19925;-71
2023/07/21 04:48:02;;;;;;;;;;;;;;;23.53;39.76;96178.13;6298827;28;20234;-73
2023/07/21 04:51:05;;;;;;;;;;;;;;;26.42;35.39;96184.13;6298201;28;19920;-72
2023/07/21 04:54:11;;;;;;;;;;;;;;;28.99;32.02;96182.78;6263684;28;19924;-72
2023/07/21 04:57:14;;;;;;;;;;;;;;;30.84;28.58;96188.47;6280354;28;19928;-72
2023/07/21 05:00:18;;;;;;;;;;;;;;;33.03;26.55;96200.78;6298199;28;19924;-72
2023/07/21 05:03:21;;;;;;;;;;;;;;;35.31;25.10;96204.16;6297593;28;19924;-72
2023/07/21 05:06:26;;;;;;;;;;;;;;;37.45;21.55;96201.72;6297494;28;19924;-73
2023/07/21 05:09:30;;;;;;;;;;;;;;;39.15;20.58;96192.34;6297891;28;19924;-72
2023/07/21 05:12:35;;;;;;;;;;;;;;;40.69;19.68;96201.47;6297968;28;20430;-73
2023/07/21 05:15:38;;;;;;;;;;;;;;;42.22;17.21;96203.22;6297212;28;19924;-72
2023/07/21 05:18:42;;;;;;;;;;;;;;;42.97;15.67;96204.09;6297883;28;20309;-73
2023/07/21 05:21:46;;;;;;;;;;;;;;;43.63;15.86;96184.56;6297744;28;19924;-73
2023/07/21 05:24:50;;;;;;;;;;;;;;;44.29;15.84;96200.81;6297792;28;19926;-72
2023/07/21 05:27:56;;;;;;;;;;;;;;;44.60;14.12;96191.38;6297573;28;19931;-73
2023/07/21 05:31:23;;;;;;;;;;;;;;;44.88;14.66;96200.06;6297527;28;19920;-72
2023/07/21 05:34:25;;;;;;;;;;;;;;;45.78;14.12;96197.81;6260790;28;19925;-73
2023/07/21 05:37:29;;;;;;;;;;;;;;;46.73;13.70;96201.44;6263014;28;20000;-72
2023/07/21 05:40:31;;;;;;;;;;;;;;;47.55;12.31;96203.91;6297085;28;19925;-73
2023/07/21 05:43:36;;;;;;;;;;;;;;;48.05;12.39;96226.78;6297465;28;19931;-73
2023/07/21 05:46:40;;;;;;;;;;;;;;;48.39;10.42;96216.91;6297263;28;19925;-73
2023/07/21 05:49:44;;;;;;;;;;;;;;;49.15;10.51;96236.28;6297135;28;20027;-75
2023/07/21 05:52:52;;;;;;;;;;;;;;;48.97;11.04;96235.84;6296964;28;19931;-74
2023/07/21 05:55:56;;;;;;;;;;;;;;;49.09;10.74;96220.94;6296874;28;19924;-72
2023/07/21 05:59:01;;;;;;;;;;;;;;;49.56;11.13;96228.34;6278992;28;19928;-72
2023/07/21 06:02:08;;;;;;;;;;;;;;;48.52;10.88;96226.00;6296666;28;19932;-73
2023/07/21 06:05:10;;;;;;;;;;;;;;;45.69;12.26;96225.69;6297395;28;19931;-73
2023/07/21 06:08:17;;;;;;;;;;;;;;;41.35;14.23;96197.16;6296954;28;20448;-73
2023/07/21 06:11:20;;;;;;;;;;;;;;;38.01;16.87;96202.34;6296109;28;19924;-73
2023/07/21 06:14:26;;;;;;;;;;;;;;;34.43;19.56;96190.56;6278950;28;19947;-73
2023/07/21 06:17:29;;;;;;;;;;;;;;;31.49;22.55;96191.75;6296201;28;19920;-74
2023/07/21 06:20:33;;;;;;;;;;;;;;;29.37;24.52;96189.66;6278405;28;19932;-73
2023/07/21 06:23:36;;;;;;;;;;;;;;;28.75;24.82;96187.28;6296317;28;20070;-74
2023/07/21 06:26:40;;;;;;;;;;;;;;;28.48;25.40;96178.75;6295367;28;19947;-72
2023/07/21 06:29:44;;;;;;;;;;;;;;;28.53;25.57;96180.75;6295231;28;19932;-73
2023/07/21 06:32:51;;;;;;;;;;;;;;;28.03;26.41;96175.56;6278524;28;19932;-73
2023/07/21 06:35:54;;;;;;;;;;;;;;;29.72;24.56;96180.72;6278348;28;19924;-74
2023/07/21 06:38:59;;;;;;;;;;;;;;;34.06;20.33;96185.22;6295764;28;19928;-73
2023/07/21 06:42:04;;;;;;;;;;;;;;;38.84;16.97;96207.38;6295581;28;19931;-72
2023/07/21 06:45:09;;;;;;;;;;;;;;;41.87;14.49;96208.59;6295646;28;19927;-73
2023/07/21 06:48:13;;;;;;;;;;;;;;;43.60;13.74;96224.03;6295658;28;19928;-73
2023/07/21 06:51:17;;;;;;;;;;;;;;;46.14;12.77;96231.28;6295477;28;19939;-72
2023/07/21 06:54:23;;;;;;;;;;;;;;;48.56;10.79;96250.06;6295240;28;20310;-73
2023/07/21 06:57:28;;;;;;;;;;;;;;;49.51;10.83;96242.63;6295365;28;19924;-73
2023/07/21 07:00:30;;;;;;;;;;;;;;;50.72;9.99;96247.69;6295264;28;19924;-73
2023/07/21 07:03:35;;;;;;;;;;;;;;;51.41;8.96;96252.31;6295263;28;19924;-73
2023/07/21 07:06:38;;;;;;;;;;;;;;;51.42;9.26;96249.16;6295138;28;19924;-73
2023/07/21 07:09:43;;;;;;;;;;;;;;;52.24;9.06;96248.50;6295230;28;20301;-73
2023/07/21 07:12:47;;;;;;;;;;;;;;;53.24;7.94;96259.72;6277082;28;19924;-72
2023/07/21 07:15:54;;;;;;;;;;;;;;;53.67;8.50;96260.75;6294977;28;19925;-74
2023/07/21 07:18:59;;;;;;;;;;;;;;;52.95;7.65;96254.69;6295040;28;19924;-73
2023/07/21 07:22:05;;;;;;;;;;;;;;;52.75;8.24;96250.56;6295009;28;19971;-72
2023/07/21 07:25:08;;;;;;;;;;;;;;;53.17;7.09;96252.06;6295081;28;19924;-72
2023/07/21 07:28:14;;;;;;;;;;;;;;;53.61;8.20;96273.56;6295180;28;20078;-72
2023/07/21 07:31:18;;;;;;;;;;;;;;;53.42;8.02;96242.94;6277242;28;19924;-72
2023/07/21 07:34:24;;;;;;;;;;;;;;;53.60;8.54;96249.47;6294977;28;20413;-72
2023/07/21 07:37:27;;;;;;;;;;;;;;;54.65;7.45;96252.13;6294632;28;19970;-73
2023/07/21 07:40:32;;;;;;;;;;;;;;;54.22;6.69;96245.63;6294591;28;19925;-73
2023/07/21 07:43:36;;;;;;;;;;;;;;;53.04;7.17;96245.94;6294793;28;20023;-74
2023/07/21 07:46:39;;;;;;;;;;;;;;;49.35;8.69;96228.75;6294795;28;19924;-73
2023/07/21 07:49:42;;;;;;;;;;;;;;;47.88;9.27;96222.34;6294894;28;19925;-72
2023/07/21 07:52:46;;;;;;;;;;;;;;;47.75;9.60;96209.59;6294932;28;19928;-73
2023/07/21 07:55:49;;;;;;;;;;;;;;;48.61;9.65;96214.66;6294820;28;20302;-72
2023/07/21 07:58:53;;;;;;;;;;;;;;;50.00;9.20;96202.84;6294700;28;20384;-73
2023/07/21 08:01:57;;;;;;;;;;;;;;;50.96;8.06;96207.25;6294612;28;20469;-73
2023/07/21 08:05:01;;;;;;;;;;;;;;;51.36;8.19;96217.03;6294631;28;20019;-73
2023/07/21 08:08:06;;;;;;;;;;;;;;;49.25;9.25;96212.53;6294556;28;19924;-73
2023/07/21 08:11:10;;;;;;;;;;;;;;;50.15;8.44;96226.31;6276579;28;20363;-73
2023/07/21 08:14:12;;;;;;;;;;;;;;;50.74;7.95;96208.13;6294401;28;20297;-73
2023/07/21 08:17:16;;;;;;;;;;;;;;;47.22;9.51;96192.97;6294210;28;20027;-73
2023/07/21 08:20:24;;;;;;;;;;;;;;;45.84;10.08;96191.69;6275952;28;19928;-73
2023/07/21 08:23:27;;;;;;;;;;;;;;;48.09;9.35;96197.78;6275974;28;20428;-73
2023/07/21 08:26:30;;;;;;;;;;;;;;;50.26;8.43;96208.53;6294124;28;20015;-73
2023/07/21 08:29:33;;;;;;;;;;;;;;;51.25;7.35;96199.25;6293845;28;19931;-72
2023/07/21 08:32:36;;;;;;;;;;;;;;;51.58;6.85;96206.84;6276390;28;19971;-74
2023/07/21 08:35:39;;;;;;;;;;;;;;;50.95;7.25;96207.63;6276137;28;19964;-74
2023/07/21 08:38:43;;;;;;;;;;;;;;;50.37;7.03;96202.31;6294018;28;19931;-73
2023/07/21 08:41:49;;;;;;;;;;;;;;;49.52;7.73;96213.50;6294274;28;20031;-73
2023/07/21 08:44:53;;;;;;;;;;;;;;;47.58;8.38;96196.81;6293994;28;20011;-74
2023/07/21 08:47:57;;;;;;;;;;;;;;;43.98;10.31;96178.94;6293757;28;20022;-74
2023/07/21 08:51:00;;;;;;;;;;;;;;;39.92;12.97;96190.00;6294930;28;19931;-74
2023/07/21 08:54:03;;;;;;;;;;;;;;;37.01;15.40;96183.41;6298251;28;19978;-74
2023/07/21 08:57:07;;;;;;;;;;;;;;;37.34;15.20;96177.38;6298137;28;19985;-74
2023/07/21 09:00:10;;;;;;;;;;;;;;;39.73;13.75;96176.25;6298140;28;20039;-74
2023/07/21 09:03:20;;;;;;;;;;;;;;;42.30;12.05;96188.63;6298238;28;19967;-73
2023/07/21 09:06:23;;;;;;;;;;;;;;;44.56;10.41;96188.47;6298114;28;19925;-73
2023/07/21 09:09:31;;;;;;;;;;;;;;;45.32;10.08;96189.41;6297898;28;20019;-74
2023/07/21 09:12:35;;;;;;;;;;;;;;;45.20;9.96;96187.41;6297756;28;20077;-73
2023/07/21 09:15:39;;;;;;;;;;;;;;;41.89;11.40;96178.66;6280126;28;20023;-74
2023/07/21 09:18:43;;;;;;;;;;;;;;;41.39;11.19;96173.34;6298070;28;19924;-73
2023/07/21 09:21:54;;;;;;;;;;;;;;;42.21;11.24;96187.78;6263502;28;19947;-73
2023/07/21 09:24:59;;;;;;;;;;;;;;;41.50;11.64;96173.91;6297815;28;20312;-74
2023/07/21 09:28:12;;;;;;;;;;;;;;;40.71;12.37;96190.91;6297551;28;19930;-72
2023/07/21 09:31:16;;;;;;;;;;;;;;;40.91;12.21;96171.16;6279465;28;20317;-73
2023/07/21 09:34:20;;;;;;;;;;;;;;;40.73;12.46;96183.16;6297273;28;20037;-73
2023/07/21 09:37:33;;;;;;;;;;;;;;;38.91;13.56;96164.97;6279363;28;20297;-73
2023/07/21 09:40:41;;;;;;;;;;;;;;;37.37;15.01;96155.69;6279476;28;19924;-72
2023/07/21 09:43:45;;;;;;;;;;;;;;;38.92;13.91;96172.91;6279224;28;19924;-73
2023/07/21 09:46:50;;;;;;;;;;;;;;;40.14;12.99;96170.00;6297185;28;19924;-73
2023/07/21 09:49:54;;;;;;;;;;;;;;;41.17;12.45;96181.63;6297215;28;20389;-73
2023/07/21 09:52:57;;;;;;;;;;;;;;;42.00;11.62;96181.19;6296951;28;19932;-73
2023/07/21 09:56:02;;;;;;;;;;;;;;;42.08;11.44;96172.13;6296789;28;19924;-75
2023/07/21 09:59:07;;;;;;;;;;;;;;;41.97;11.68;96192.88;6296912;28;19924;-72
2023/07/21 10:02:11;;;;;;;;;;;;;;;41.73;11.91;96191.28;6296853;28;20022;-73
2023/07/21 10:05:15;;;;;;;;;;;;;;;41.58;12.08;96188.91;6296764;28;19925;-72
2023/07/21 10:08:21;;;;;;;;;;;;;;;41.49;12.04;96189.66;6296704;28;19925;-72
2023/07/21 10:11:23;;;;;;;;;;;;;;;41.84;11.80;96203.69;6303886;28;20318;-73
2023/07/21 10:14:31;;;;;;;;;;;;;;;42.26;11.14;96195.91;6278889;28;19924;-72
2023/07/21 10:17:42;;;;;;;;;;;;;;;41.69;11.80;96188.31;6278691;28;19931;-72
2023/07/21 10:20:50;;;;;;;;;;;;;;;40.77;12.38;96196.03;6278233;28;19924;-72
2023/07/21 10:23:54;;;;;;;;;;;;;;;37.97;13.82;96191.94;6296113;28;20022;-72
2023/07/21 10:27:05;;;;;;;;;;;;;;;36.64;14.83;96197.59;6295954;28;19931;-74
2023/07/21 10:30:19;;;;;;;;;;;;;;;34.85;16.48;96197.81;6296095;28;19924;-73
2023/07/21 10:33:28;;;;;;;;;;;;;;;35.77;15.77;96199.78;6293060;28;19931;-73
2023/07/21 10:36:41;;;;;;;;;;;;;;;37.08;14.66;96219.53;6277840;28;19924;-73
2023/07/21 10:39:52;;;;;;;;;;;;;;;37.49;13.73;96219.28;6295112;28;20015;-74
2023/07/21 10:42:55;;;;;;;;;;;;;;;37.35;13.63;96207.28;6278050;28;19932;-73
2023/07/21 10:45:58;;;;;;;;;;;;;;;38.05;13.22;96197.88;6295836;28;20390;-73
2023/07/21 10:49:02;;;;;;;;;;;;;;;38.05;13.87;96203.38;6295780;28;19920;-73
2023/07/21 10:52:06;;;;;;;;;;;;;;;37.43;14.09;96209.44;6295527;28;19931;-73
2023/07/21 10:55:09;;;;;;;;;;;;;;;37.00;14.37;96213.81;6295639;28;20018;-72
2023/07/21 10:58:14;;;;;;;;;;;;;;;37.10;15.03;96193.78;6295698;28;19924;-72
2023/07/21 11:01:18;;;;;;;;;;;;;;;36.93;14.97;96194.94;6295477;28;19924;-72
2023/07/21 11:04:22;;;;;;;;;;;;;;;36.33;15.09;96202.38;6295323;28;19931;-73
2023/07/21 11:07:27;;;;;;;;;;;;;;;36.00;15.70;96196.41;6295549;28;20027;-73
2023/07/21 11:10:33;;;;;;;;;;;;;;;35.48;16.01;96197.59;6295183;28;19932;-74
2023/07/21 11:13:40;;;;;;;;;;;;;;;33.49;17.49;96187.53;6294896;28;20022;-74
2023/07/21 11:16:45;;;;;;;;;;;;;;;32.58;18.84;96193.78;6295168;28;19925;-74
2023/07/21 11:19:48;;;;;;;;;;;;;;;33.36;18.72;96207.06;6294945;28;20028;-74
2023/07/21 11:22:51;;;;;;;;;;;;;;;32.64;19.16;96206.38;6277086;28;20015;-73
2023/07/21 11:26:07;;;;;;;;;;;;;;;31.69;20.20;96205.63;6294936;28;19931;-73
2023/07/21 11:29:10;;;;;;;;;;;;;;;30.51;21.66;96215.50;6294762;28;19928;-73
2023/07/21 11:32:17;;;;;;;;;;;;;;;29.93;22.22;96204.53;6294775;28;19931;-74
2023/07/21 11:35:19;;;;;;;;;;;;;;;30.59;22.04;96202.38;6294629;28;19959;-73
2023/07/21 11:38:23;;;;;;;;;;;;;;;31.90;20.28;96208.63;6294736;28;20018;-73
2023/07/21 11:41:32;;;;;;;;;;;;;;;32.95;19.31;96212.13;6294396;28;20354;-74
2023/07/21 11:44:36;;;;;;;;;;;;;;;32.73;19.59;96222.25;6294258;28;19931;-74
2023/07/21 11:47:40;;;;;;;;;;;;;;;32.41;19.47;96229.22;6294687;28;19942;-74
2023/07/21 11:50:54;;;;;;;;;;;;;;;32.40;19.45;96227.56;6294414;28;19924;-73
2023/07/21 11:53:59;;;;;;;;;;;;;;;31.92;19.56;96214.69;6294558;28;19931;-74
2023/07/21 11:57:03;;;;;;;;;;;;;;;31.23;20.83;96218.50;6294536;28;19931;-73
2023/07/21 12:00:13;;;;;;;;;;;;;;;30.18;21.56;96222.44;6276350;28;19924;-74
2023/07/21 12:03:17;;;;;;;;;;;;;;;30.16;22.08;96219.94;6276564;28;19925;-76
2023/07/21 12:06:21;;;;;;;;;;;;;;;30.63;21.54;96225.28;6294085;28;19971;-74
2023/07/21 12:09:25;;;;;;;;;;;;;;;31.42;20.93;96221.81;6294307;28;19931;-74
2023/07/21 12:12:28;;;;;;;;;;;;;;;31.86;20.05;96223.84;6276468;28;19924;-75
2023/07/21 12:15:33;;;;;;;;;;;;;;;32.12;20.11;96225.84;6294201;28;20019;-72
2023/07/21 12:18:38;;;;;;;;;;;;;;;32.14;19.75;96220.97;6294354;28;20074;-75
2023/07/21 12:21:41;;;;;;;;;;;;;;;32.17;19.84;96222.38;6294220;28;19924;-74
2023/07/21 12:24:44;;;;;;;;;;;;;;;31.81;20.75;96223.75;6294283;28;19947;-73
2023/07/21 12:27:48;;;;;;;;;;;;;;;31.91;20.54;96237.53;6298081;28;20018;-74
2023/07/21 12:30:51;;;;;;;;;;;;;;;31.66;20.90;96233.34;6298823;28;19924;-73
2023/07/21 12:33:54;;;;;;;;;;;;;;;31.57;20.67;96229.41;6298546;28;20364;-74
2023/07/21 12:36:58;;;;;;;;;;;;;;;31.70;20.55;96228.22;6298781;28;19924;-73
2023/07/21 12:40:01;;;;;;;;;;;;;;;32.08;20.26;96235.59;6298770;28;20321;-72
2023/07/21 12:43:06;;;;;;;;;;;;;;;31.76;20.37;96249.81;6298649;28;19924;-73
2023/07/21 12:46:12;;;;;;;;;;;;;;;31.14;21.34;96230.84;6298982;28;19931;-73
2023/07/21 12:49:16;;;;;;;;;;;;;;;30.67;21.57;96236.47;6298206;28;19932;-72
2023/07/21 12:52:20;;;;;;;;;;;;;;;29.85;22.19;96229.31;6298371;28;19924;-73
2023/07/21 12:55:24;;;;;;;;;;;;;;;29.04;23.06;96230.84;6298304;28;19931;-74
2023/07/21 12:58:28;;;;;;;;;;;;;;;29.30;22.67;96229.63;6298065;28;19946;-72
2023/07/21 13:01:31;;;;;;;;;;;;;;;29.82;22.38;96240.63;6298481;28;20022;-74
2023/07/21 13:04:35;;;;;;;;;;;;;;;29.92;22.34;96240.88;6298129;28;20416;-74
2023/07/21 13:07:39;;;;;;;;;;;;;;;29.99;22.39;96240.72;6280189;28;20017;-73
2023/07/21 13:10:42;;;;;;;;;;;;;;;29.78;22.78;96250.31;6298162;28;19924;-74
2023/07/21 13:13:48;;;;;;;;;;;;;;;29.44;23.43;96247.31;6297853;28;20018;-74
2023/07/21 13:16:51;;;;;;;;;;;;;;;29.12;23.81;96241.34;6297424;28;20404;-74
2023/07/21 13:19:55;;;;;;;;;;;;;;;28.69;24.27;96255.06;6297759;28;20457;-74
2023/07/21 13:22:58;;;;;;;;;;;;;;;28.49;24.30;96242.63;6297829;28;19924;-74
2023/07/21 13:26:01;;;;;;;;;;;;;;;28.20;24.39;96239.63;6279434;28;20015;-74
2023/07/21 13:29:04;;;;;;;;;;;;;;;28.01;24.59;96240.66;6263669;28;19932;-73
2023/07/21 13:32:09;;;;;;;;;;;;;;;28.00;24.72;96239.03;6297228;28;19930;-74
2023/07/21 13:35:12;;;;;;;;;;;;;;;27.94;24.94;96235.34;6279454;28;19932;-73
2023/07/21 13:38:16;;;;;;;;;;;;;;;28.03;24.86;96235.88;6296129;28;19931;-74
2023/07/21 13:41:20;;;;;;;;;;;;;;;27.88;24.99;96238.09;6297090;28;20244;-74
2023/07/21 13:44:24;;;;;;;;;;;;;;;27.69;25.05;96248.06;6296926;28;20313;-73
2023/07/21 13:47:28;;;;;;;;;;;;;;;27.67;25.27;96240.16;6297153;28;20376;-74
2023/07/21 13:50:32;;;;;;;;;;;;;;;27.49;25.42;96253.63;6279035;28;19924;-74
2023/07/21 13:53:35;;;;;;;;;;;;;;;27.33;25.82;96243.38;6297161;28;20031;-74
2023/07/21 13:56:39;;;;;;;;;;;;;;;27.19;26.05;96254.28;6296610;28;19927;-74
2023/07/21 13:59:42;;;;;;;;;;;;;;;27.07;26.35;96251.44;6261953;28;19934;-75
2023/07/21 14:02:45;;;;;;;;;;;;;;;26.94;26.24;96256.09;6296569;28;19931;-74
2023/07/21 14:05:50;;;;;;;;;;;;;;;26.86;26.38;96255.31;6296589;28;20015;-74
2023/07/21 14:08:53;;;;;;;;;;;;;;;26.73;26.69;96255.38;6278762;28;19955;-74
2023/07/21 14:11:57;;;;;;;;;;;;;;;26.69;26.64;96259.53;6296521;28;20466;-73
2023/07/21 14:15:01;;;;;;;;;;;;;;;26.60;26.79;96260.84;6296497;28;19938;-74
2023/07/21 14:18:07;;;;;;;;;;;;;;;26.54;27.30;96251.72;6296425;28;20452;-74
2023/07/21 14:21:10;;;;;;;;;;;;;;;26.39;27.23;96260.06;6296150;28;19930;-74
2023/07/21 14:24:14;;;;;;;;;;;;;;;26.49;27.69;96253.38;6296066;28;19979;-73
2023/07/21 14:27:18;;;;;;;;;;;;;;;26.52;27.68;96263.78;6295938;28;20463;-74
2023/07/21 14:30:22;;;;;;;;;;;;;;;26.40;27.83;96264.41;6295954;28;19942;-73
2023/07/21 14:33:24;;;;;;;;;;;;;;;26.41;27.99;96266.09;6296168;28;20073;-73
2023/07/21 14:36:27;;;;;;;;;;;;;;;26.39;28.22;96276.25;6296472;28;19943;-74
2023/07/21 14:39:30;;;;;;;;;;;;;;;26.37;28.49;96267.53;6277597;28;20626;-73
2023/07/21 14:42:33;;;;;;;;;;;;;;;26.14;28.65;96267.22;6278126;28;19994;-74
2023/07/21 14:45:36;;;;;;;;;;;;;;;26.05;28.65;96273.91;6295426;28;20404;-73
2023/07/21 14:48:39;;;;;;;;;;;;;;;26.03;29.27;96273.28;6294764;28;19931;-73
2023/07/21 14:51:45;;;;;;;;;;;;;;;25.82;29.75;96280.53;6294915;28;20222;-73
2023/07/21 14:54:46;;;;;;;;;;;;;;;25.56;30.02;96285.94;6277569;28;20018;-73
2023/07/21 14:57:52;;;;;;;;;;;;;;;25.41;30.07;96286.16;6295318;28;20405;-73
2023/07/21 15:00:53;;;;;;;;;;;;;;;25.31;30.36;96284.72;6295304;28;19939;-73
2023/07/21 15:03:54;;;;;;;;;;;;;;;25.18;30.49;96286.56;6276852;28;20317;-74
2023/07/21 15:06:55;;;;;;;;;;;;;;;25.04;30.17;96294.56;6294148;28;19924;-72
2023/07/21 15:09:59;;;;;;;;;;;;;;;24.95;30.50;96287.72;6295131;28;19924;-72
2023/07/21 15:13:00;;;;;;;;;;;;;;;24.81;30.51;96289.56;6295331;28;20002;-73
2023/07/21 15:16:04;;;;;;;;;;;;;;;24.69;30.91;96301.13;6295242;28;19925;-72
2023/07/21 15:19:05;;;;;;;;;;;;;;;24.69;31.14;96306.50;6295224;28;19971;-73
2023/07/21 15:22:10;;;;;;;;;;;;;;;24.63;31.27;96303.59;6294922;28;20019;-73
2023/07/21 15:25:15;;;;;;;;;;;;;;;24.53;31.75;96303.13;6294834;28;19924;-73
2023/07/21 15:28:20;;;;;;;;;;;;;;;24.33;32.03;96312.94;6294670;28;20398;-73
2023/07/21 15:31:21;;;;;;;;;;;;;;;24.03;32.56;96307.81;6294893;28;19924;-73
2023/07/21 15:34:25;;;;;;;;;;;;;;;23.80;33.00;96318.00;6276846;28;19924;-72
2023/07/21 15:37:26;;;;;;;;;;;;;;;23.59;33.29;96316.97;6294171;28;19927;-72
2023/07/21 15:40:28;;;;;;;;;;;;;;;23.43;33.46;96317.25;6294144;28;20309;-73
2023/07/21 15:43:35;;;;;;;;;;;;;;;23.23;33.70;96323.28;6294703;28;19924;-74
2023/07/21 15:46:41;;;;;;;;;;;;;;;22.99;34.74;96321.00;6294848;28;20401;-73
2023/07/21 15:49:44;;;;;;;;;;;;;;;22.77;34.35;96330.81;6294360;28;19924;-74
2023/07/21 15:52:48;;;;;;;;;;;;;;;22.57;34.93;96344.00;6294288;28;19978;-72
2023/07/21 15:55:51;;;;;;;;;;;;;;;22.48;36.39;96339.78;6294090;28;20321;-73
2023/07/21 15:58:54;;;;;;;;;;;;;;;22.27;36.26;96348.53;6293808;28;20313;-73
2023/07/21 16:01:58;;;;;;;;;;;;;;;22.09;37.70;96335.50;6298915;28;19925;-72